Time;durP1;ratioP1;P1;durP2;ratioP2;P2;SDS_P1;SDS_P2;PMS_P1;PMS_P2;Temp;Humidity;BMP_temperature;BMP_pressure;BME280_temperature;BME280_humidity;BME280_pressure;Samples;Min_cycle;Max_cycle;Signal;HPM_P1;HPM_P2
2022/10/04 00:01:44;;;;;;;;;;;;;;;7.11;92.93;97230.16;4900573;29;19954;-75
2022/10/04 00:04:14;;;;;;;;;;;;;;;7.10;92.92;97228.56;4900567;29;19970;-74
2022/10/04 00:06:55;;;;;;;;;;;;;;;7.07;92.65;97221.06;4900632;29;19967;-75
2022/10/04 00:09:23;;;;;;;;;;;;;;;7.04;92.05;97220.63;4900213;29;19973;-75
2022/10/04 00:11:51;;;;;;;;;;;;;;;7.02;91.98;97209.56;4900329;29;19962;-75
2022/10/04 00:14:24;;;;;;;;;;;;;;;7.01;92.46;97219.16;4900350;29;20335;-75
2022/10/04 00:16:50;;;;;;;;;;;;;;;6.99;92.59;97215.13;4900176;29;19952;-75
2022/10/04 00:19:16;;;;;;;;;;;;;;;6.96;92.62;97216.28;4900149;29;19963;-75
2022/10/04 00:21:55;;;;;;;;;;;;;;;6.94;92.57;97213.03;4900327;29;19957;-75
2022/10/04 00:24:28;;;;;;;;;;;;;;;6.91;92.16;97206.38;4899904;29;19955;-75
2022/10/04 00:27:01;;;;;;;;;;;;;;;6.91;92.43;97210.81;4890652;29;19962;-75
2022/10/04 00:29:26;;;;;;;;;;;;;;;6.90;92.68;97212.56;4885301;29;20436;-75
2022/10/04 00:32:10;;;;;;;;;;;;;;;6.89;92.49;97199.72;4899854;29;19982;-75
2022/10/04 00:34:46;;;;;;;;;;;;;;;6.87;92.45;97193.88;4899998;29;19962;-75
2022/10/04 00:37:15;;;;;;;;;;;;;;;6.86;92.27;97194.84;4899124;29;20450;-75
2022/10/04 00:39:42;;;;;;;;;;;;;;;6.84;92.22;97196.81;4899935;29;19957;-74
2022/10/04 00:42:27;;;;;;;;;;;;;;;6.84;92.05;97191.59;4899642;29;19962;-75
2022/10/04 00:44:57;;;;;;;;;;;;;;;6.80;91.76;97188.53;4899500;29;19958;-75
2022/10/04 00:47:30;;;;;;;;;;;;;;;6.78;91.82;97187.91;4900201;29;19957;-75
2022/10/04 00:50:22;;;;;;;;;;;;;;;6.77;91.99;97188.09;4899353;29;19973;-75
2022/10/04 00:52:53;;;;;;;;;;;;;;;6.73;91.88;97186.81;4877141;29;19966;-75
2022/10/04 00:55:25;;;;;;;;;;;;;;;6.69;91.72;97184.53;4899788;29;19970;-75
2022/10/04 00:57:58;;;;;;;;;;;;;;;6.69;91.99;97189.75;4899261;29;19966;-75
2022/10/04 01:00:24;;;;;;;;;;;;;;;6.66;92.14;97182.31;4899467;29;19956;-75
2022/10/04 01:02:54;;;;;;;;;;;;;;;6.64;92.42;97184.28;4899236;29;19968;-75
2022/10/04 01:05:26;;;;;;;;;;;;;;;6.61;92.80;97195.03;4898368;29;19952;-75
2022/10/04 01:07:55;;;;;;;;;;;;;;;6.58;92.74;97195.41;4899069;29;19957;-75
2022/10/04 01:10:30;;;;;;;;;;;;;;;6.54;92.39;97178.47;4899716;29;20342;-75
2022/10/04 01:12:59;;;;;;;;;;;;;;;6.54;92.72;97177.69;4887636;29;19961;-75
2022/10/04 01:15:32;;;;;;;;;;;;;;;6.54;92.99;97181.09;4899080;29;19953;-75
2022/10/04 01:18:12;;;;;;;;;;;;;;;6.55;92.70;97176.69;4897973;29;19956;-75
2022/10/04 01:20:39;;;;;;;;;;;;;;;6.54;93.11;97173.28;4899194;29;20352;-75
2022/10/04 01:23:08;;;;;;;;;;;;;;;6.53;93.18;97165.63;4899131;29;19955;-75
2022/10/04 01:25:49;;;;;;;;;;;;;;;6.50;92.86;97170.19;4899007;29;19949;-75
2022/10/04 01:28:16;;;;;;;;;;;;;;;6.47;92.89;97162.75;4889638;29;20307;-75
2022/10/04 01:30:42;;;;;;;;;;;;;;;6.46;92.63;97162.91;4898989;29;19975;-75
2022/10/04 01:33:09;;;;;;;;;;;;;;;6.45;92.77;97158.69;4898949;29;19980;-75
2022/10/04 01:35:35;;;;;;;;;;;;;;;6.44;92.99;97157.84;4898889;29;19970;-75
2022/10/04 01:38:02;;;;;;;;;;;;;;;6.44;92.78;97150.03;4898830;29;19954;-75
2022/10/04 01:40:30;;;;;;;;;;;;;;;6.43;92.99;97148.44;4898650;29;19951;-75
2022/10/04 01:43:00;;;;;;;;;;;;;;;6.43;93.25;97155.44;4899016;29;19964;-75
2022/10/04 01:45:42;;;;;;;;;;;;;;;6.43;93.31;97163.25;4898934;29;19953;-75
2022/10/04 01:48:14;;;;;;;;;;;;;;;6.43;93.71;97150.25;4898614;29;19949;-75
2022/10/04 01:50:46;;;;;;;;;;;;;;;6.42;93.41;97151.22;4897930;29;19975;-75
2022/10/04 01:53:18;;;;;;;;;;;;;;;6.39;93.17;97152.38;4898572;29;19949;-75
2022/10/04 01:55:48;;;;;;;;;;;;;;;6.35;92.55;97153.69;4899238;29;20317;-75
2022/10/04 01:58:20;;;;;;;;;;;;;;;6.35;92.91;97153.69;4898668;29;19958;-75
2022/10/04 02:00:52;;;;;;;;;;;;;;;6.30;92.69;97140.41;4898467;29;20329;-75
2022/10/04 02:03:27;;;;;;;;;;;;;;;6.26;92.48;97133.91;4898560;29;19963;-75
2022/10/04 02:05:56;;;;;;;;;;;;;;;6.22;92.58;97136.03;4888408;29;20000;-75
2022/10/04 02:08:24;;;;;;;;;;;;;;;6.19;92.43;97128.56;4898575;29;19954;-75
2022/10/04 02:10:52;;;;;;;;;;;;;;;6.16;92.48;97128.91;4898779;29;19984;-76
2022/10/04 02:13:20;;;;;;;;;;;;;;;6.14;92.75;97136.09;4898562;29;19962;-75
2022/10/04 02:15:46;;;;;;;;;;;;;;;6.11;92.90;97139.06;4898713;29;19963;-75
2022/10/04 02:18:13;;;;;;;;;;;;;;;6.09;92.96;97134.00;4897099;29;19960;-75
2022/10/04 02:20:40;;;;;;;;;;;;;;;6.08;92.79;97139.38;4898528;29;19956;-75
2022/10/04 02:23:06;;;;;;;;;;;;;;;6.07;92.70;97135.19;4898445;29;19970;-75
2022/10/04 02:25:34;;;;;;;;;;;;;;;6.06;93.11;97134.34;4898354;29;19956;-75
2022/10/04 02:28:01;;;;;;;;;;;;;;;6.07;93.16;97129.97;4898486;29;20451;-75
2022/10/04 02:30:27;;;;;;;;;;;;;;;6.06;93.22;97133.53;4898147;29;19982;-75
2022/10/04 02:32:57;;;;;;;;;;;;;;;6.07;93.39;97133.38;4898847;29;19989;-75
2022/10/04 02:35:26;;;;;;;;;;;;;;;6.08;94.45;97134.97;4886626;29;19958;-75
2022/10/04 02:37:56;;;;;;;;;;;;;;;6.08;95.41;97127.16;4898292;29;19960;-75
2022/10/04 02:40:25;;;;;;;;;;;;;;;6.09;96.89;97122.78;4897442;29;19955;-75
2022/10/04 02:43:26;;;;;;;;;;;;;;;6.01;96.86;97112.44;4898116;29;19962;-75
2022/10/04 02:46:06;;;;;;;;;;;;;;;5.92;97.82;97103.81;4840790;29;19957;-75
2022/10/04 02:48:35;;;;;;;;;;;;;;;5.92;98.08;97108.19;4883383;29;19957;-75
2022/10/04 02:51:16;;;;;;;;;;;;;;;5.93;97.75;97108.03;4897576;29;19968;-75
2022/10/04 02:53:50;;;;;;;;;;;;;;;5.95;97.91;97100.09;4898588;29;19960;-75
2022/10/04 02:56:17;;;;;;;;;;;;;;;5.96;97.64;97099.91;4898144;29;20414;-75
2022/10/04 02:58:43;;;;;;;;;;;;;;;5.96;97.71;97104.31;4898096;29;19958;-75
2022/10/04 03:01:35;;;;;;;;;;;;;;;5.96;97.24;97105.09;4899790;29;20051;-75
2022/10/04 03:04:02;;;;;;;;;;;;;;;5.97;97.36;97103.34;4879667;29;19957;-75
2022/10/04 03:06:31;;;;;;;;;;;;;;;5.97;97.45;97109.34;4901418;29;19953;-75
2022/10/04 03:09:04;;;;;;;;;;;;;;;5.99;97.02;97109.19;4901421;29;19966;-75
2022/10/04 03:11:33;;;;;;;;;;;;;;;5.99;97.00;97107.38;4901112;29;19965;-75
2022/10/04 03:14:01;;;;;;;;;;;;;;;6.01;97.22;97107.22;4901306;29;19951;-75
2022/10/04 03:16:33;;;;;;;;;;;;;;;6.01;97.07;97102.00;4901236;29;19953;-75
2022/10/04 03:18:59;;;;;;;;;;;;;;;6.02;97.39;97103.63;4902051;29;19959;-75
2022/10/04 03:21:25;;;;;;;;;;;;;;;6.05;97.76;97114.50;4901226;29;19963;-75
2022/10/04 03:23:52;;;;;;;;;;;;;;;6.06;97.80;97113.50;4901188;29;20419;-75
2022/10/04 03:26:27;;;;;;;;;;;;;;;6.07;98.05;97112.53;4901128;29;20016;-75
2022/10/04 03:28:55;;;;;;;;;;;;;;;6.06;97.87;97115.31;4892130;29;19961;-75
2022/10/04 03:31:22;;;;;;;;;;;;;;;6.07;98.08;97111.75;4900567;29;19975;-76
2022/10/04 03:33:48;;;;;;;;;;;;;;;6.06;97.81;97105.69;4901513;29;20313;-75
2022/10/04 03:36:16;;;;;;;;;;;;;;;6.07;98.33;97093.50;4900774;29;20402;-75
2022/10/04 03:38:43;;;;;;;;;;;;;;;6.07;97.96;97103.94;4900612;29;19956;-75
2022/10/04 03:41:10;;;;;;;;;;;;;;;6.07;98.00;97096.91;4901009;29;19948;-75
2022/10/04 03:43:40;;;;;;;;;;;;;;;6.07;97.82;97104.72;4900636;29;19960;-75
2022/10/04 03:46:09;;;;;;;;;;;;;;;6.07;97.81;97099.53;4900555;29;20483;-75
2022/10/04 03:48:43;;;;;;;;;;;;;;;6.07;98.05;97101.31;4900799;29;19961;-75
2022/10/04 03:51:20;;;;;;;;;;;;;;;6.07;98.73;97099.53;4900559;29;20436;-75
2022/10/04 03:53:48;;;;;;;;;;;;;;;6.07;98.90;97098.72;4900729;29;20436;-75
2022/10/04 03:56:26;;;;;;;;;;;;;;;6.08;98.73;97103.72;4900364;29;19951;-75
2022/10/04 03:58:52;;;;;;;;;;;;;;;6.08;99.17;97095.91;4888943;29;19951;-75
2022/10/04 04:01:39;;;;;;;;;;;;;;;6.09;98.82;97099.34;4900456;29;19956;-75
2022/10/04 04:04:11;;;;;;;;;;;;;;;6.09;98.87;97094.16;4900513;29;19963;-75
2022/10/04 04:06:50;;;;;;;;;;;;;;;6.10;98.86;97095.75;4900150;29;19975;-75
2022/10/04 04:09:20;;;;;;;;;;;;;;;6.06;98.68;97092.69;4900727;29;19960;-75
2022/10/04 04:11:48;;;;;;;;;;;;;;;6.06;98.84;97097.88;4899960;29;19951;-75
2022/10/04 04:14:19;;;;;;;;;;;;;;;6.01;98.06;97089.78;4900174;29;19950;-75
2022/10/04 04:16:45;;;;;;;;;;;;;;;5.97;98.69;97098.94;4900171;29;19953;-75
2022/10/04 04:19:14;;;;;;;;;;;;;;;5.90;96.92;97087.56;4899993;29;19953;-75
2022/10/04 04:21:40;;;;;;;;;;;;;;;5.81;97.43;97088.59;4900224;29;19958;-75
2022/10/04 04:24:13;;;;;;;;;;;;;;;5.78;97.89;97088.94;4900047;29;19950;-75
2022/10/04 04:26:48;;;;;;;;;;;;;;;5.76;98.06;97096.91;4900211;29;19949;-75
2022/10/04 04:29:22;;;;;;;;;;;;;;;5.72;97.55;97087.81;4900090;29;19945;-75
2022/10/04 04:31:53;;;;;;;;;;;;;;;5.60;98.16;97092.59;4899899;29;19992;-75
2022/10/04 04:34:21;;;;;;;;;;;;;;;5.59;98.66;97096.19;4900368;29;19962;-75
2022/10/04 04:36:47;;;;;;;;;;;;;;;5.61;98.80;97104.63;4899939;29;19956;-75
2022/10/04 04:39:33;;;;;;;;;;;;;;;5.65;98.60;97097.31;4899784;29;19966;-75
2022/10/04 04:42:11;;;;;;;;;;;;;;;5.67;98.68;97097.94;4885812;29;20345;-76
2022/10/04 04:44:43;;;;;;;;;;;;;;;5.69;98.41;97093.34;4899837;29;19948;-75
2022/10/04 04:47:14;;;;;;;;;;;;;;;5.72;98.19;97084.41;4899591;29;19956;-75
2022/10/04 04:49:40;;;;;;;;;;;;;;;5.73;98.37;97091.22;4899913;29;19966;-75
2022/10/04 04:52:12;;;;;;;;;;;;;;;5.74;98.24;97087.66;4899333;29;19961;-75
2022/10/04 04:54:38;;;;;;;;;;;;;;;5.75;98.14;97086.66;4899830;29;19955;-75
2022/10/04 04:57:04;;;;;;;;;;;;;;;5.75;98.35;97090.06;4899492;29;19988;-75
2022/10/04 04:59:30;;;;;;;;;;;;;;;5.77;98.22;97095.13;4899603;29;19963;-75
2022/10/04 05:01:56;;;;;;;;;;;;;;;5.78;98.60;97100.16;4899274;29;20012;-75
2022/10/04 05:04:22;;;;;;;;;;;;;;;5.81;98.34;97101.59;4899576;29;19969;-75
2022/10/04 05:07:05;;;;;;;;;;;;;;;5.81;98.32;97106.81;4899031;29;19962;-76
2022/10/04 05:09:32;;;;;;;;;;;;;;;5.80;97.78;97107.81;4886662;29;19966;-76
2022/10/04 05:12:02;;;;;;;;;;;;;;;5.73;97.75;97096.44;4899135;29;19961;-75
2022/10/04 05:14:31;;;;;;;;;;;;;;;5.66;97.75;97097.13;4899600;29;19955;-76
2022/10/04 05:16:57;;;;;;;;;;;;;;;5.59;97.87;97090.97;4899168;29;19962;-75
2022/10/04 05:19:29;;;;;;;;;;;;;;;5.55;98.76;97094.91;4899007;29;19990;-76
2022/10/04 05:21:56;;;;;;;;;;;;;;;5.53;99.18;97093.47;4899404;29;19971;-75
2022/10/04 05:24:25;;;;;;;;;;;;;;;5.51;98.55;97098.81;4899140;29;19958;-75
2022/10/04 05:26:53;;;;;;;;;;;;;;;5.54;98.62;97097.66;4899268;29;19963;-75
2022/10/04 05:29:20;;;;;;;;;;;;;;;5.55;98.71;97100.09;4898930;29;19956;-75
2022/10/04 05:31:54;;;;;;;;;;;;;;;5.57;98.33;97092.94;4898854;29;20609;-75
2022/10/04 05:34:22;;;;;;;;;;;;;;;5.59;97.99;97101.38;4898971;29;19955;-75
2022/10/04 05:37:06;;;;;;;;;;;;;;;5.63;97.73;97107.06;4898807;29;19951;-75
2022/10/04 05:39:40;;;;;;;;;;;;;;;5.63;97.58;97110.47;4898753;29;19963;-76
2022/10/04 05:42:36;;;;;;;;;;;;;;;5.64;97.17;97106.06;4898885;29;19948;-75
2022/10/04 05:45:10;;;;;;;;;;;;;;;5.64;97.30;97106.88;4888274;29;19953;-75
2022/10/04 05:47:39;;;;;;;;;;;;;;;5.64;96.73;97106.06;4898638;29;19952;-76
2022/10/04 05:50:05;;;;;;;;;;;;;;;5.65;97.03;97108.53;4898955;29;20436;-75
2022/10/04 05:52:37;;;;;;;;;;;;;;;5.66;97.19;97111.91;4898389;29;19959;-76
2022/10/04 05:55:22;;;;;;;;;;;;;;;5.68;97.14;97112.56;4898124;29;19960;-75
2022/10/04 05:57:57;;;;;;;;;;;;;;;5.66;96.97;97104.91;4897763;29;19953;-75
2022/10/04 06:00:31;;;;;;;;;;;;;;;5.65;97.30;97113.72;4898539;29;20023;-75
2022/10/04 06:03:16;;;;;;;;;;;;;;;5.66;96.77;97111.91;4898670;29;19973;-76
2022/10/04 06:05:45;;;;;;;;;;;;;;;5.66;97.16;97110.13;4898620;29;20411;-76
2022/10/04 06:08:28;;;;;;;;;;;;;;;5.68;97.69;97107.34;4898605;29;19965;-75
2022/10/04 06:11:08;;;;;;;;;;;;;;;5.69;97.34;97112.41;4888801;29;19967;-76
2022/10/04 06:13:52;;;;;;;;;;;;;;;5.68;96.80;97117.78;4898407;29;20434;-75
2022/10/04 06:16:21;;;;;;;;;;;;;;;5.64;96.48;97112.09;4898371;29;20330;-75
2022/10/04 06:18:58;;;;;;;;;;;;;;;5.61;96.10;97114.25;4898679;29;20025;-75
2022/10/04 06:21:24;;;;;;;;;;;;;;;5.54;97.10;97115.88;4898470;29;19949;-76
2022/10/04 06:23:58;;;;;;;;;;;;;;;5.54;97.77;97123.69;4898178;29;19966;-75
2022/10/04 06:26:26;;;;;;;;;;;;;;;5.56;97.86;97134.72;4898579;29;19983;-75
2022/10/04 06:28:56;;;;;;;;;;;;;;;5.55;97.69;97130.53;4898619;29;19947;-76
2022/10/04 06:31:50;;;;;;;;;;;;;;;5.54;97.24;97134.91;4897904;29;19979;-75
2022/10/04 06:34:26;;;;;;;;;;;;;;;5.59;97.27;97142.22;4898134;29;19959;-75
2022/10/04 06:36:52;;;;;;;;;;;;;;;5.62;97.36;97134.06;4901195;29;19959;-75
2022/10/04 06:39:51;;;;;;;;;;;;;;;5.64;96.96;97138.09;4902514;29;20315;-75
2022/10/04 06:42:24;;;;;;;;;;;;;;;5.67;96.96;97143.00;4870395;29;20406;-75
2022/10/04 06:44:56;;;;;;;;;;;;;;;5.68;97.05;97144.59;4901995;29;19955;-75
2022/10/04 06:47:25;;;;;;;;;;;;;;;5.70;96.99;97140.03;4901722;29;19958;-75
2022/10/04 06:50:14;;;;;;;;;;;;;;;5.72;97.23;97136.47;4901640;29;19955;-75
2022/10/04 06:52:43;;;;;;;;;;;;;;;5.70;97.33;97144.44;4874966;29;19964;-75
2022/10/04 06:55:19;;;;;;;;;;;;;;;5.67;97.91;97140.38;4897275;29;19953;-75
2022/10/04 06:58:07;;;;;;;;;;;;;;;5.59;97.92;97134.41;4894055;29;19966;-76
2022/10/04 07:00:40;;;;;;;;;;;;;;;5.46;98.52;97142.75;4890425;29;19956;-75
2022/10/04 07:03:11;;;;;;;;;;;;;;;5.42;99.12;97137.06;4901470;29;19957;-75
2022/10/04 07:05:43;;;;;;;;;;;;;;;5.42;99.37;97131.06;4901157;29;19957;-75
2022/10/04 07:08:35;;;;;;;;;;;;;;;5.45;100.00;97133.31;4900961;29;19960;-75
2022/10/04 07:11:20;;;;;;;;;;;;;;;5.46;100.00;97140.16;4901391;29;19968;-75
2022/10/04 07:13:49;;;;;;;;;;;;;;;5.45;100.00;97136.72;4891768;29;20327;-75
2022/10/04 07:16:15;;;;;;;;;;;;;;;5.46;100.00;97135.75;4900461;29;19963;-75
2022/10/04 07:18:41;;;;;;;;;;;;;;;5.49;100.00;97135.41;4901456;29;19966;-75
2022/10/04 07:21:10;;;;;;;;;;;;;;;5.57;100.00;97137.16;4901290;29;19956;-75
2022/10/04 07:23:42;;;;;;;;;;;;;;;5.65;100.00;97134.53;4901105;29;19956;-75
2022/10/04 07:26:27;;;;;;;;;;;;;;;5.66;100.00;97130.94;4901315;29;19950;-76
2022/10/04 07:31:41;;;;;;;;;;;;;;;5.80;100.00;97137.22;4900873;29;19979;-75
2022/10/04 07:34:14;;;;;;;;;;;;;;;5.83;100.00;97128.25;4900880;29;19960;-75
2022/10/04 07:36:44;;;;;;;;;;;;;;;5.84;100.00;97135.91;4901173;29;19982;-75
2022/10/04 07:39:15;;;;;;;;;;;;;;;5.92;100.00;97145.44;4901145;29;19955;-76
2022/10/04 07:41:51;;;;;;;;;;;;;;;5.89;100.00;97138.81;4900887;29;19962;-75
2022/10/04 07:44:25;;;;;;;;;;;;;;;5.96;100.00;97143.34;4900633;29;19945;-75
2022/10/04 07:46:51;;;;;;;;;;;;;;;5.98;99.97;97134.38;4899585;29;19957;-75
2022/10/04 07:49:19;;;;;;;;;;;;;;;5.97;99.30;97148.41;4900649;29;19986;-76
2022/10/04 07:52:03;;;;;;;;;;;;;;;5.96;99.23;97154.56;4901049;29;19980;-75
2022/10/04 07:54:32;;;;;;;;;;;;;;;6.04;99.72;97151.13;4887159;29;19956;-75
2022/10/04 07:57:10;;;;;;;;;;;;;;;6.14;99.03;97151.72;4901054;29;19953;-75
2022/10/04 07:59:36;;;;;;;;;;;;;;;6.20;99.50;97151.03;4890889;29;19963;-75
2022/10/04 08:02:18;;;;;;;;;;;;;;;6.24;98.77;97157.53;4900697;29;19956;-75
2022/10/04 08:04:57;;;;;;;;;;;;;;;6.36;99.08;97151.91;4899899;29;20313;-75
2022/10/04 08:07:26;;;;;;;;;;;;;;;6.50;99.12;97154.56;4900390;29;19962;-75
2022/10/04 08:09:59;;;;;;;;;;;;;;;6.63;99.90;97158.38;4899640;29;19948;-75
2022/10/04 08:12:44;;;;;;;;;;;;;;;6.78;99.44;97153.22;4900282;29;19962;-75
2022/10/04 08:15:12;;;;;;;;;;;;;;;6.96;98.49;97150.28;4900321;29;19950;-75
2022/10/04 08:17:47;;;;;;;;;;;;;;;7.16;98.75;97147.97;4900117;29;20425;-75
2022/10/04 08:20:32;;;;;;;;;;;;;;;7.34;99.26;97147.63;4900060;29;19961;-76
2022/10/04 08:23:03;;;;;;;;;;;;;;;7.52;99.57;97148.06;4900081;29;19959;-75
2022/10/04 08:25:48;;;;;;;;;;;;;;;7.65;99.02;97150.84;4900198;29;19958;-75
2022/10/04 08:31:38;;;;;;;;;;;;;;;7.98;98.02;97140.00;4900173;29;19982;-76
2022/10/04 08:34:04;;;;;;;;;;;;;;;8.10;98.13;97137.69;4860632;29;20121;-76
2022/10/04 08:36:40;;;;;;;;;;;;;;;8.17;97.75;97135.16;4892368;29;20379;-75
2022/10/04 08:39:27;;;;;;;;;;;;;;;8.23;97.15;97132.63;4899773;29;20409;-75
2022/10/04 08:41:52;;;;;;;;;;;;;;;8.32;97.70;97138.53;4899908;29;19965;-75
2022/10/04 08:44:50;;;;;;;;;;;;;;;8.37;96.34;97132.75;4899833;29;19959;-75
2022/10/04 08:47:28;;;;;;;;;;;;;;;8.51;99.29;97132.72;4899858;29;20407;-75
2022/10/04 08:50:03;;;;;;;;;;;;;;;8.70;98.67;97136.50;4899429;29;20324;-75
2022/10/04 08:52:48;;;;;;;;;;;;;;;8.88;96.94;97122.13;4899995;29;19973;-75
2022/10/04 08:55:14;;;;;;;;;;;;;;;9.02;96.22;97128.28;4892360;29;19959;-75
2022/10/04 08:57:49;;;;;;;;;;;;;;;9.13;96.68;97127.75;4899321;29;19946;-76
2022/10/04 09:00:15;;;;;;;;;;;;;;;9.27;95.88;97129.44;4899242;29;20340;-75
2022/10/04 09:02:45;;;;;;;;;;;;;;;9.35;92.56;97116.19;4899485;29;19963;-75
2022/10/04 09:05:31;;;;;;;;;;;;;;;9.36;93.08;97130.09;4899274;29;20423;-75
2022/10/04 09:07:56;;;;;;;;;;;;;;;9.37;92.81;97141.41;4899472;29;19965;-75
2022/10/04 09:10:43;;;;;;;;;;;;;;;9.38;94.54;97143.78;4899116;29;19962;-75
2022/10/04 09:13:29;;;;;;;;;;;;;;;9.50;95.19;97144.88;4888021;29;19962;-76
2022/10/04 09:16:16;;;;;;;;;;;;;;;9.62;94.81;97147.78;4887639;29;19950;-75
2022/10/04 09:18:50;;;;;;;;;;;;;;;9.75;95.32;97144.41;4889293;29;19964;-75
2022/10/04 09:21:19;;;;;;;;;;;;;;;9.77;94.91;97150.25;4899012;29;19965;-75
2022/10/04 09:24:09;;;;;;;;;;;;;;;9.74;95.58;97148.00;4887439;29;19961;-75
2022/10/04 09:26:53;;;;;;;;;;;;;;;9.82;95.12;97139.97;4872044;29;19962;-75
2022/10/04 09:29:38;;;;;;;;;;;;;;;10.01;95.84;97135.81;4899065;29;19967;-75
2022/10/04 09:32:06;;;;;;;;;;;;;;;10.21;95.11;97135.88;4888570;29;20336;-75
2022/10/04 09:34:51;;;;;;;;;;;;;;;10.41;95.33;97140.38;4899022;29;19980;-75
2022/10/04 09:37:46;;;;;;;;;;;;;;;10.51;92.21;97125.88;4898719;29;20452;-75
2022/10/04 09:40:15;;;;;;;;;;;;;;;10.51;92.85;97128.50;4886361;29;19972;-75
2022/10/04 09:42:41;;;;;;;;;;;;;;;10.60;92.92;97128.28;4897943;29;19964;-75
2022/10/04 09:45:26;;;;;;;;;;;;;;;10.67;91.66;97131.75;4898757;29;20438;-75
2022/10/04 09:48:01;;;;;;;;;;;;;;;10.76;92.84;97125.28;4889491;29;20344;-75
2022/10/04 09:50:28;;;;;;;;;;;;;;;10.88;90.29;97118.41;4898595;29;19957;-75
2022/10/04 09:53:18;;;;;;;;;;;;;;;11.00;88.93;97112.53;4899104;29;19952;-75
2022/10/04 09:55:59;;;;;;;;;;;;;;;11.10;89.57;97118.19;4890525;29;19955;-75
2022/10/04 09:58:28;;;;;;;;;;;;;;;11.16;86.66;97105.03;4897322;29;19956;-75
2022/10/04 10:01:02;;;;;;;;;;;;;;;11.24;88.10;97109.28;4898648;29;19967;-75
2022/10/04 10:03:35;;;;;;;;;;;;;;;11.35;89.42;97111.25;4898505;29;19969;-75
2022/10/04 10:06:04;;;;;;;;;;;;;;;11.46;88.43;97101.13;4898713;29;19952;-75
2022/10/04 10:08:40;;;;;;;;;;;;;;;11.58;89.01;97110.00;4898915;29;19958;-75
2022/10/04 10:13:57;;;;;;;;;;;;;;;11.72;88.21;97116.00;4902702;29;19966;-76
2022/10/04 10:16:31;;;;;;;;;;;;;;;11.78;87.04;97102.84;4902871;29;20352;-75
2022/10/04 10:19:06;;;;;;;;;;;;;;;11.86;86.94;97101.78;4889505;29;19966;-75
2022/10/04 10:21:32;;;;;;;;;;;;;;;11.98;84.20;97089.63;4902463;29;19961;-75
2022/10/04 10:24:21;;;;;;;;;;;;;;;12.10;84.28;97091.59;4902323;29;19967;-75
2022/10/04 10:26:56;;;;;;;;;;;;;;;12.21;82.44;97087.47;4894808;29;19965;-76
2022/10/04 10:29:41;;;;;;;;;;;;;;;12.30;85.83;97108.03;4902394;29;19965;-75
2022/10/04 10:32:42;;;;;;;;;;;;;;;12.43;83.20;97083.50;4901698;29;20002;-75
2022/10/04 10:35:26;;;;;;;;;;;;;;;12.54;81.48;97076.72;4844378;29;20424;-76
2022/10/04 10:38:13;;;;;;;;;;;;;;;12.60;83.49;97091.66;4897294;29;19961;-76
2022/10/04 10:40:45;;;;;;;;;;;;;;;12.73;82.67;97081.00;4901372;29;19962;-75
2022/10/04 10:43:12;;;;;;;;;;;;;;;12.81;82.73;97087.84;4900690;29;19960;-76
2022/10/04 10:45:57;;;;;;;;;;;;;;;12.85;81.95;97082.94;4901974;29;19963;-75
2022/10/04 10:48:34;;;;;;;;;;;;;;;12.90;80.33;97064.69;4901734;29;19957;-75
2022/10/04 10:51:09;;;;;;;;;;;;;;;13.08;80.86;97069.97;4901669;29;19981;-76
2022/10/04 10:53:41;;;;;;;;;;;;;;;13.28;80.40;97058.41;4901765;29;20329;-75
2022/10/04 10:56:07;;;;;;;;;;;;;;;13.50;78.63;97046.44;4901928;29;19956;-75
2022/10/04 10:58:44;;;;;;;;;;;;;;;13.72;79.65;97056.50;4901879;29;20328;-75
2022/10/04 11:01:38;;;;;;;;;;;;;;;14.02;81.10;97062.56;4901454;29;19952;-75
2022/10/04 11:04:22;;;;;;;;;;;;;;;14.27;77.00;97043.13;4888956;29;19968;-75
2022/10/04 11:06:54;;;;;;;;;;;;;;;14.43;75.12;97020.56;4901715;29;19955;-75
2022/10/04 11:09:24;;;;;;;;;;;;;;;14.65;76.69;97041.97;4901357;29;19964;-76
2022/10/04 11:12:25;;;;;;;;;;;;;;;14.83;75.72;97041.06;4901183;29;19974;-75
2022/10/04 11:14:51;;;;;;;;;;;;;;;15.01;72.93;97009.25;4843537;29;19960;-76
2022/10/04 11:17:35;;;;;;;;;;;;;;;15.17;77.87;97049.97;4889093;29;19968;-75
2022/10/04 11:20:34;;;;;;;;;;;;;;;15.20;72.08;96995.84;4901259;29;19948;-75
2022/10/04 11:23:14;;;;;;;;;;;;;;;15.19;72.77;96999.53;4887497;29;19986;-75
2022/10/04 11:25:53;;;;;;;;;;;;;;;15.35;75.77;97022.59;4901128;29;19958;-75
2022/10/04 11:28:35;;;;;;;;;;;;;;;15.49;69.94;96970.25;4901092;29;19962;-75
2022/10/04 11:31:06;;;;;;;;;;;;;;;15.56;71.84;96988.63;4901106;29;20427;-75
2022/10/04 11:33:35;;;;;;;;;;;;;;;15.72;74.59;97008.25;4901269;29;19982;-75
2022/10/04 11:36:11;;;;;;;;;;;;;;;15.94;72.37;96980.09;4900897;29;19964;-75
2022/10/04 11:38:49;;;;;;;;;;;;;;;16.02;69.90;96965.66;4900939;29;20360;-75
2022/10/04 11:41:35;;;;;;;;;;;;;;;16.16;70.29;96971.44;4901037;29;19965;-75
2022/10/04 11:44:13;;;;;;;;;;;;;;;16.30;70.11;96974.59;4900842;29;19955;-75
2022/10/04 11:46:46;;;;;;;;;;;;;;;16.31;68.18;96953.16;4891054;29;19954;-75
2022/10/04 11:49:12;;;;;;;;;;;;;;;16.39;69.30;96965.19;4900720;29;19956;-75
2022/10/04 11:51:57;;;;;;;;;;;;;;;16.41;68.59;96950.66;4900722;29;19970;-75
2022/10/04 11:54:26;;;;;;;;;;;;;;;16.49;68.04;96956.59;4901073;29;20402;-75
2022/10/04 11:57:11;;;;;;;;;;;;;;;16.50;64.84;96918.47;4900731;29;19955;-74
2022/10/04 11:59:44;;;;;;;;;;;;;;;16.49;65.83;96919.53;4900587;29;19966;-75
2022/10/04 12:02:27;;;;;;;;;;;;;;;16.34;67.29;96934.16;4900398;29;20459;-75
2022/10/04 12:04:56;;;;;;;;;;;;;;;16.24;67.72;96931.34;4892127;29;19961;-74
2022/10/04 12:07:41;;;;;;;;;;;;;;;16.24;69.47;96955.97;4900493;29;19959;-75
2022/10/04 12:10:21;;;;;;;;;;;;;;;16.35;69.72;96956.13;4900762;29;19957;-75
2022/10/04 12:12:47;;;;;;;;;;;;;;;16.41;67.54;96944.56;4900510;29;19974;-75
2022/10/04 12:15:15;;;;;;;;;;;;;;;16.50;66.69;96921.91;4900362;29;19969;-75
2022/10/04 12:18:05;;;;;;;;;;;;;;;16.61;70.08;96950.16;4900130;29;19958;-75
2022/10/04 12:20:31;;;;;;;;;;;;;;;16.74;69.82;96948.22;4900155;29;19961;-75
2022/10/04 12:22:59;;;;;;;;;;;;;;;16.86;66.45;96925.06;4900594;29;20341;-74
2022/10/04 12:25:41;;;;;;;;;;;;;;;16.95;67.71;96931.53;4900145;29;20432;-75
2022/10/04 12:28:16;;;;;;;;;;;;;;;17.05;67.05;96912.34;4900121;29;19961;-74
2022/10/04 12:31:08;;;;;;;;;;;;;;;17.17;65.70;96901.56;4900144;29;19970;-75
2022/10/04 12:33:41;;;;;;;;;;;;;;;17.24;65.79;96899.56;4896551;29;19981;-75
2022/10/04 12:36:07;;;;;;;;;;;;;;;17.36;66.49;96908.13;4900030;29;19973;-75
2022/10/04 12:38:58;;;;;;;;;;;;;;;17.49;65.80;96895.53;4899954;29;20003;-75
2022/10/04 12:41:44;;;;;;;;;;;;;;;17.48;66.46;96902.69;4899797;29;19956;-75
2022/10/04 12:44:12;;;;;;;;;;;;;;;17.50;66.15;96900.59;4899746;29;19955;-75
2022/10/04 12:46:48;;;;;;;;;;;;;;;17.60;65.46;96890.09;4899777;29;19956;-75
2022/10/04 12:49:32;;;;;;;;;;;;;;;17.69;63.54;96874.50;4899806;29;20455;-75
2022/10/04 12:52:01;;;;;;;;;;;;;;;17.77;67.50;96921.78;4899678;29;19975;-75
2022/10/04 12:54:56;;;;;;;;;;;;;;;17.87;65.20;96893.78;4899780;29;19959;-75
2022/10/04 12:57:28;;;;;;;;;;;;;;;18.00;65.59;96885.41;4865148;29;20362;-75
2022/10/04 13:00:23;;;;;;;;;;;;;;;18.13;66.07;96894.78;4899223;29;20019;-75
2022/10/04 13:02:59;;;;;;;;;;;;;;;18.23;67.83;96918.75;4887050;29;19965;-75
2022/10/04 13:05:44;;;;;;;;;;;;;;;18.32;66.22;96897.81;4898710;29;20317;-75
2022/10/04 13:08:30;;;;;;;;;;;;;;;18.42;65.88;96898.69;4899060;29;19953;-75
2022/10/04 13:11:02;;;;;;;;;;;;;;;18.56;65.77;96901.69;4898698;29;19955;-75
2022/10/04 13:13:40;;;;;;;;;;;;;;;18.63;64.42;96886.31;4899327;29;19968;-74
2022/10/04 13:16:22;;;;;;;;;;;;;;;18.70;62.96;96866.69;4884260;29;19962;-75
2022/10/04 13:19:01;;;;;;;;;;;;;;;18.64;63.50;96887.88;4898623;29;19958;-75
2022/10/04 13:21:46;;;;;;;;;;;;;;;18.62;61.17;96858.13;4899332;29;20349;-75
2022/10/04 13:24:20;;;;;;;;;;;;;;;18.61;61.49;96866.38;4888944;29;19967;-74
2022/10/04 13:26:53;;;;;;;;;;;;;;;18.61;62.28;96884.97;4897718;29;19950;-75
2022/10/04 13:29:26;;;;;;;;;;;;;;;18.67;64.24;96905.19;4898884;29;19955;-75
2022/10/04 13:31:59;;;;;;;;;;;;;;;18.71;61.33;96881.53;4899105;29;19989;-75
2022/10/04 13:34:25;;;;;;;;;;;;;;;18.71;63.09;96905.44;4898932;29;19961;-75
2022/10/04 13:36:53;;;;;;;;;;;;;;;18.68;58.04;96840.38;4899247;29;20041;-75
2022/10/04 13:39:37;;;;;;;;;;;;;;;18.64;60.69;96892.41;4898827;29;19952;-75